sensor_id;sensor_type;location;lat;lon;timestamp;temperature;humidity
19174;DHT22;9719;49.322;8.536;2023-04-06T00:01:00;0.60;94.20
19174;DHT22;9719;49.322;8.536;2023-04-06T00:06:02;0.70;93.10
19174;DHT22;9719;49.322;8.536;2023-04-06T00:11:04;0.60;91.60
19174;DHT22;9719;49.322;8.536;2023-04-06T00:16:07;0.40;91.90
19174;DHT22;9719;49.322;8.536;2023-04-06T00:21:11;0.30;93.30
19174;DHT22;9719;49.322;8.536;2023-04-06T00:26:13;0.20;93.60
19174;DHT22;9719;49.322;8.536;2023-04-06T00:31:16;0.20;96.20
19174;DHT22;9719;49.322;8.536;2023-04-06T00:36:17;0.10;93.10
19174;DHT22;9719;49.322;8.536;2023-04-06T00:41:19;-0.10;92.20
19174;DHT22;9719;49.322;8.536;2023-04-06T00:46:23;-0.20;92.90
19174;DHT22;9719;49.322;8.536;2023-04-06T00:51:24;-0.40;91.80
19174;DHT22;9719;49.322;8.536;2023-04-06T00:56:27;-0.50;94.90
19174;DHT22;9719;49.322;8.536;2023-04-06T01:01:30;-0.50;94.00
19174;DHT22;9719;49.322;8.536;2023-04-06T01:06:32;-0.60;95.00
19174;DHT22;9719;49.322;8.536;2023-04-06T01:11:35;-0.50;96.50
19174;DHT22;9719;49.322;8.536;2023-04-06T01:16:38;-0.40;99.60
19174;DHT22;9719;49.322;8.536;2023-04-06T01:21:41;-0.30;98.60
19174;DHT22;9719;49.322;8.536;2023-04-06T01:26:44;-0.10;99.90
19174;DHT22;9719;49.322;8.536;2023-04-06T01:31:45;0.00;99.50
19174;DHT22;9719;49.322;8.536;2023-04-06T01:36:47;-0.10;98.30
19174;DHT22;9719;49.322;8.536;2023-04-06T01:41:50;-0.20;96.90
19174;DHT22;9719;49.322;8.536;2023-04-06T01:46:52;-0.30;99.70
19174;DHT22;9719;49.322;8.536;2023-04-06T01:51:53;-0.30;99.90
19174;DHT22;9719;49.322;8.536;2023-04-06T01:56:56;-0.40;99.40
19174;DHT22;9719;49.322;8.536;2023-04-06T02:01:58;-0.50;99.90
19174;DHT22;9719;49.322;8.536;2023-04-06T02:07:00;-0.60;99.30
19174;DHT22;9719;49.322;8.536;2023-04-06T02:12:03;-0.70;98.50
19174;DHT22;9719;49.322;8.536;2023-04-06T02:17:04;-0.70;99.90
19174;DHT22;9719;49.322;8.536;2023-04-06T02:22:06;-0.50;99.90
19174;DHT22;9719;49.322;8.536;2023-04-06T02:27:09;-0.30;99.90
19174;DHT22;9719;49.322;8.536;2023-04-06T02:32:11;0.00;99.90
19174;DHT22;9719;49.322;8.536;2023-04-06T02:37:12;0.10;99.90
19174;DHT22;9719;49.322;8.536;2023-04-06T02:42:15;0.30;99.90
19174;DHT22;9719;49.322;8.536;2023-04-06T02:47:17;0.50;99.90
19174;DHT22;9719;49.322;8.536;2023-04-06T02:52:19;0.60;99.90
19174;DHT22;9719;49.322;8.536;2023-04-06T02:57:22;0.70;99.90
19174;DHT22;9719;49.322;8.536;2023-04-06T03:02:23;0.60;99.90
19174;DHT22;9719;49.322;8.536;2023-04-06T03:07:25;0.50;99.90
19174;DHT22;9719;49.322;8.536;2023-04-06T03:12:28;0.50;99.90
19174;DHT22;9719;49.322;8.536;2023-04-06T03:17:29;0.60;99.90
19174;DHT22;9719;49.322;8.536;2023-04-06T03:22:31;0.50;99.90
19174;DHT22;9719;49.322;8.536;2023-04-06T03:27:34;0.50;99.90
19174;DHT22;9719;49.322;8.536;2023-04-06T03:32:36;0.60;99.90
19174;DHT22;9719;49.322;8.536;2023-04-06T03:37:37;0.60;99.90
19174;DHT22;9719;49.322;8.536;2023-04-06T03:42:40;0.50;99.90
19174;DHT22;9719;49.322;8.536;2023-04-06T03:47:42;0.50;99.90
19174;DHT22;9719;49.322;8.536;2023-04-06T03:52:43;0.50;99.90
19174;DHT22;9719;49.322;8.536;2023-04-06T03:57:46;0.50;99.90
19174;DHT22;9719;49.322;8.536;2023-04-06T04:02:48;0.50;99.90
19174;DHT22;9719;49.322;8.536;2023-04-06T04:07:50;0.50;99.90
19174;DHT22;9719;49.322;8.536;2023-04-06T04:12:53;0.50;99.90
19174;DHT22;9719;49.322;8.536;2023-04-06T04:17:54;0.50;99.90
19174;DHT22;9719;49.322;8.536;2023-04-06T04:22:56;0.60;99.90
19174;DHT22;9719;49.322;8.536;2023-04-06T04:27:59;0.50;99.90
19174;DHT22;9719;49.322;8.536;2023-04-06T04:33:01;0.30;99.90
19174;DHT22;9719;49.322;8.536;2023-04-06T04:38:02;0.10;99.90
19174;DHT22;9719;49.322;8.536;2023-04-06T04:43:05;0.00;99.90
19174;DHT22;9719;49.322;8.536;2023-04-06T04:48:07;-0.20;99.90
19174;DHT22;9719;49.322;8.536;2023-04-06T04:53:09;-0.30;99.90
19174;DHT22;9719;49.322;8.536;2023-04-06T04:58:12;-0.30;99.90
19174;DHT22;9719;49.322;8.536;2023-04-06T05:03:20;-0.40;99.90
19174;DHT22;9719;49.322;8.536;2023-04-06T05:08:22;-0.40;99.90
19174;DHT22;9719;49.322;8.536;2023-04-06T05:13:25;-0.10;99.90
19174;DHT22;9719;49.322;8.536;2023-04-06T05:18:27;0.10;99.90
19174;DHT22;9719;49.322;8.536;2023-04-06T05:23:28;0.30;99.90
19174;DHT22;9719;49.322;8.536;2023-04-06T05:28:32;0.50;99.90
19174;DHT22;9719;49.322;8.536;2023-04-06T05:33:33;0.80;99.90
19174;DHT22;9719;49.322;8.536;2023-04-06T05:38:35;1.00;99.90
19174;DHT22;9719;49.322;8.536;2023-04-06T05:43:38;1.30;99.90
19174;DHT22;9719;49.322;8.536;2023-04-06T05:48:40;1.60;99.90
19174;DHT22;9719;49.322;8.536;2023-04-06T05:53:41;1.90;99.90
19174;DHT22;9719;49.322;8.536;2023-04-06T05:58:44;2.10;99.90
19174;DHT22;9719;49.322;8.536;2023-04-06T06:03:46;2.40;99.90
19174;DHT22;9719;49.322;8.536;2023-04-06T06:08:47;2.60;99.90
19174;DHT22;9719;49.322;8.536;2023-04-06T06:13:50;2.90;99.90
19174;DHT22;9719;49.322;8.536;2023-04-06T06:18:52;3.10;99.90
19174;DHT22;9719;49.322;8.536;2023-04-06T06:23:54;3.40;99.90
19174;DHT22;9719;49.322;8.536;2023-04-06T06:28:57;3.60;99.90
19174;DHT22;9719;49.322;8.536;2023-04-06T06:33:58;3.80;99.90
19174;DHT22;9719;49.322;8.536;2023-04-06T06:39:00;4.10;99.90
19174;DHT22;9719;49.322;8.536;2023-04-06T06:44:05;4.30;99.90
19174;DHT22;9719;49.322;8.536;2023-04-06T06:49:06;4.50;99.90
19174;DHT22;9719;49.322;8.536;2023-04-06T06:54:08;4.70;99.90
19174;DHT22;9719;49.322;8.536;2023-04-06T06:59:11;5.00;99.90
19174;DHT22;9719;49.322;8.536;2023-04-06T07:04:13;5.30;99.90
19174;DHT22;9719;49.322;8.536;2023-04-06T07:09:15;5.50;99.90
19174;DHT22;9719;49.322;8.536;2023-04-06T07:14:17;5.80;99.90
19174;DHT22;9719;49.322;8.536;2023-04-06T07:19:19;6.00;99.90
19174;DHT22;9719;49.322;8.536;2023-04-06T07:24:21;6.30;99.90
19174;DHT22;9719;49.322;8.536;2023-04-06T07:29:24;6.50;99.90
19174;DHT22;9719;49.322;8.536;2023-04-06T07:34:25;6.80;99.90
19174;DHT22;9719;49.322;8.536;2023-04-06T07:39:28;7.10;99.90
19174;DHT22;9719;49.322;8.536;2023-04-06T07:44:31;7.30;99.90
19174;DHT22;9719;49.322;8.536;2023-04-06T07:49:33;7.50;99.90
19174;DHT22;9719;49.322;8.536;2023-04-06T07:54:34;7.70;99.20
19174;DHT22;9719;49.322;8.536;2023-04-06T07:59:37;8.00;98.50
19174;DHT22;9719;49.322;8.536;2023-04-06T08:04:39;8.20;96.10
19174;DHT22;9719;49.322;8.536;2023-04-06T08:09:40;8.40;94.80
19174;DHT22;9719;49.322;8.536;2023-04-06T08:14:44;8.70;93.50
19174;DHT22;9719;49.322;8.536;2023-04-06T08:19:45;8.90;92.40
19174;DHT22;9719;49.322;8.536;2023-04-06T08:24:47;9.10;90.90
19174;DHT22;9719;49.322;8.536;2023-04-06T08:29:50;9.30;90.30
19174;DHT22;9719;49.322;8.536;2023-04-06T08:34:54;9.50;88.70
19174;DHT22;9719;49.322;8.536;2023-04-06T08:39:57;9.80;87.30
19174;DHT22;9719;49.322;8.536;2023-04-06T08:45:00;10.00;86.20
19174;DHT22;9719;49.322;8.536;2023-04-06T08:50:03;10.30;84.90
19174;DHT22;9719;49.322;8.536;2023-04-06T08:55:06;10.60;83.40
19174;DHT22;9719;49.322;8.536;2023-04-06T09:00:10;10.90;82.30
19174;DHT22;9719;49.322;8.536;2023-04-06T09:05:13;11.20;80.10
19174;DHT22;9719;49.322;8.536;2023-04-06T09:10:16;11.60;76.60
19174;DHT22;9719;49.322;8.536;2023-04-06T09:15:20;11.80;74.60
19174;DHT22;9719;49.322;8.536;2023-04-06T09:20:23;12.00;71.30
19174;DHT22;9719;49.322;8.536;2023-04-06T09:25:26;12.40;71.60
19174;DHT22;9719;49.322;8.536;2023-04-06T09:30:30;12.90;71.60
19174;DHT22;9719;49.322;8.536;2023-04-06T09:35:31;13.40;68.90
19174;DHT22;9719;49.322;8.536;2023-04-06T09:40:33;16.40;71.10
19174;DHT22;9719;49.322;8.536;2023-04-06T09:45:36;21.40;61.70
19174;DHT22;9719;49.322;8.536;2023-04-06T09:50:40;25.50;52.60
19174;DHT22;9719;49.322;8.536;2023-04-06T09:55:43;28.20;47.00
19174;DHT22;9719;49.322;8.536;2023-04-06T10:00:50;30.40;40.40
19174;DHT22;9719;49.322;8.536;2023-04-06T10:05:55;31.50;36.40
19174;DHT22;9719;49.322;8.536;2023-04-06T10:10:59;32.70;33.50
19174;DHT22;9719;49.322;8.536;2023-04-06T10:16:04;34.50;33.30
19174;DHT22;9719;49.322;8.536;2023-04-06T10:21:08;34.90;30.20
19174;DHT22;9719;49.322;8.536;2023-04-06T10:26:13;35.70;29.00
19174;DHT22;9719;49.322;8.536;2023-04-06T10:31:25;36.10;27.70
19174;DHT22;9719;49.322;8.536;2023-04-06T10:36:28;36.40;26.60
19174;DHT22;9719;49.322;8.536;2023-04-06T10:41:33;35.50;26.70
19174;DHT22;9719;49.322;8.536;2023-04-06T10:46:37;36.50;26.50
19174;DHT22;9719;49.322;8.536;2023-04-06T10:51:39;37.10;25.40
19174;DHT22;9719;49.322;8.536;2023-04-06T10:56:40;36.00;24.60
19174;DHT22;9719;49.322;8.536;2023-04-06T11:01:45;35.60;23.90
19174;DHT22;9719;49.322;8.536;2023-04-06T11:06:48;35.20;24.80
19174;DHT22;9719;49.322;8.536;2023-04-06T11:11:50;35.30;25.20
19174;DHT22;9719;49.322;8.536;2023-04-06T11:16:54;36.00;24.50
19174;DHT22;9719;49.322;8.536;2023-04-06T11:21:55;35.70;23.90
19174;DHT22;9719;49.322;8.536;2023-04-06T11:26:58;35.20;24.40
19174;DHT22;9719;49.322;8.536;2023-04-06T11:32:03;34.80;24.30
19174;DHT22;9719;49.322;8.536;2023-04-06T11:37:08;34.70;24.00
19174;DHT22;9719;49.322;8.536;2023-04-06T11:42:10;34.60;24.00
19174;DHT22;9719;49.322;8.536;2023-04-06T11:47:13;34.00;24.40
19174;DHT22;9719;49.322;8.536;2023-04-06T11:52:16;34.30;24.50
19174;DHT22;9719;49.322;8.536;2023-04-06T11:57:19;34.30;23.80
19174;DHT22;9719;49.322;8.536;2023-04-06T12:02:22;32.60;24.50
19174;DHT22;9719;49.322;8.536;2023-04-06T12:07:24;32.80;25.20
19174;DHT22;9719;49.322;8.536;2023-04-06T12:12:26;34.40;24.90
19174;DHT22;9719;49.322;8.536;2023-04-06T12:17:29;35.30;23.90
19174;DHT22;9719;49.322;8.536;2023-04-06T12:22:31;33.90;24.10
19174;DHT22;9719;49.322;8.536;2023-04-06T12:27:32;32.50;24.30
19174;DHT22;9719;49.322;8.536;2023-04-06T12:32:35;31.90;25.00
19174;DHT22;9719;49.322;8.536;2023-04-06T12:37:37;33.10;25.10
19174;DHT22;9719;49.322;8.536;2023-04-06T12:42:39;34.30;24.30
19174;DHT22;9719;49.322;8.536;2023-04-06T12:47:43;33.90;24.10
19174;DHT22;9719;49.322;8.536;2023-04-06T12:52:45;34.20;24.60
19174;DHT22;9719;49.322;8.536;2023-04-06T12:57:46;36.60;23.60
19174;DHT22;9719;49.322;8.536;2023-04-06T13:02:49;35.80;23.40
19174;DHT22;9719;49.322;8.536;2023-04-06T13:07:51;37.70;23.50
19174;DHT22;9719;49.322;8.536;2023-04-06T13:12:53;39.10;23.00
19174;DHT22;9719;49.322;8.536;2023-04-06T13:17:56;38.70;22.40
19174;DHT22;9719;49.322;8.536;2023-04-06T13:22:57;37.80;22.20
19174;DHT22;9719;49.322;8.536;2023-04-06T13:27:59;37.30;22.60
19174;DHT22;9719;49.322;8.536;2023-04-06T13:33:02;36.60;22.40
19174;DHT22;9719;49.322;8.536;2023-04-06T13:38:05;34.10;22.80
19174;DHT22;9719;49.322;8.536;2023-04-06T13:43:06;33.00;23.70
19174;DHT22;9719;49.322;8.536;2023-04-06T13:48:09;31.40;24.40
19174;DHT22;9719;49.322;8.536;2023-04-06T13:53:11;29.00;25.70
19174;DHT22;9719;49.322;8.536;2023-04-06T13:58:13;28.00;26.20
19174;DHT22;9719;49.322;8.536;2023-04-06T14:03:16;27.50;26.70
19174;DHT22;9719;49.322;8.536;2023-04-06T14:08:18;26.30;27.60
19174;DHT22;9719;49.322;8.536;2023-04-06T14:13:19;25.90;27.80
19174;DHT22;9719;49.322;8.536;2023-04-06T14:18:22;26.10;28.10
19174;DHT22;9719;49.322;8.536;2023-04-06T14:23:24;24.70;29.00
19174;DHT22;9719;49.322;8.536;2023-04-06T14:28:27;23.90;29.70
19174;DHT22;9719;49.322;8.536;2023-04-06T14:33:30;23.70;29.60
19174;DHT22;9719;49.322;8.536;2023-04-06T14:38:32;23.30;29.90
19174;DHT22;9719;49.322;8.536;2023-04-06T14:43:33;22.80;30.90
19174;DHT22;9719;49.322;8.536;2023-04-06T14:48:36;22.70;30.60
19174;DHT22;9719;49.322;8.536;2023-04-06T14:53:38;22.50;31.40
19174;DHT22;9719;49.322;8.536;2023-04-06T14:58:40;22.30;31.20
19174;DHT22;9719;49.322;8.536;2023-04-06T15:03:43;22.40;31.20
19174;DHT22;9719;49.322;8.536;2023-04-06T15:08:44;22.10;31.10
19174;DHT22;9719;49.322;8.536;2023-04-06T15:13:47;21.80;30.50
19174;DHT22;9719;49.322;8.536;2023-04-06T15:18:50;21.50;31.70
19174;DHT22;9719;49.322;8.536;2023-04-06T15:23:51;21.10;31.70
19174;DHT22;9719;49.322;8.536;2023-04-06T15:28:53;20.70;32.50
19174;DHT22;9719;49.322;8.536;2023-04-06T15:33:56;20.40;33.10
19174;DHT22;9719;49.322;8.536;2023-04-06T15:38:58;20.10;33.80
19174;DHT22;9719;49.322;8.536;2023-04-06T15:44:00;19.90;34.40
19174;DHT22;9719;49.322;8.536;2023-04-06T15:49:03;19.70;33.80
19174;DHT22;9719;49.322;8.536;2023-04-06T15:54:04;19.50;34.40
19174;DHT22;9719;49.322;8.536;2023-04-06T15:59:07;19.30;35.20
19174;DHT22;9719;49.322;8.536;2023-04-06T16:04:10;18.90;36.30
19174;DHT22;9719;49.322;8.536;2023-04-06T16:09:12;18.60;36.80
19174;DHT22;9719;49.322;8.536;2023-04-06T16:14:14;18.30;36.90
19174;DHT22;9719;49.322;8.536;2023-04-06T16:19:17;18.00;37.60
19174;DHT22;9719;49.322;8.536;2023-04-06T16:24:20;17.80;38.40
19174;DHT22;9719;49.322;8.536;2023-04-06T16:29:24;17.50;39.10
19174;DHT22;9719;49.322;8.536;2023-04-06T16:34:31;17.30;39.80
19174;DHT22;9719;49.322;8.536;2023-04-06T16:39:33;17.20;40.60
19174;DHT22;9719;49.322;8.536;2023-04-06T16:44:34;16.90;41.40
19174;DHT22;9719;49.322;8.536;2023-04-06T16:49:37;16.80;41.80
19174;DHT22;9719;49.322;8.536;2023-04-06T16:54:39;16.70;43.30
19174;DHT22;9719;49.322;8.536;2023-04-06T16:59:41;16.40;43.90
19174;DHT22;9719;49.322;8.536;2023-04-06T17:04:44;16.10;46.30
19174;DHT22;9719;49.322;8.536;2023-04-06T17:09:45;15.70;47.50
19174;DHT22;9719;49.322;8.536;2023-04-06T17:14:48;15.40;48.70
19174;DHT22;9719;49.322;8.536;2023-04-06T17:19:51;15.20;49.70
19174;DHT22;9719;49.322;8.536;2023-04-06T17:24:53;14.80;50.30
19174;DHT22;9719;49.322;8.536;2023-04-06T17:29:54;14.70;51.00
19174;DHT22;9719;49.322;8.536;2023-04-06T17:34:57;14.40;53.90
19174;DHT22;9719;49.322;8.536;2023-04-06T17:39:59;14.20;55.40
19174;DHT22;9719;49.322;8.536;2023-04-06T17:45:01;14.00;56.80
19174;DHT22;9719;49.322;8.536;2023-04-06T17:50:05;13.70;58.30
19174;DHT22;9719;49.322;8.536;2023-04-06T17:55:07;13.70;58.30
19174;DHT22;9719;49.322;8.536;2023-04-06T18:00:10;13.50;59.90
19174;DHT22;9719;49.322;8.536;2023-04-06T18:05:13;13.30;60.50
19174;DHT22;9719;49.322;8.536;2023-04-06T18:10:15;13.20;60.70
19174;DHT22;9719;49.322;8.536;2023-04-06T18:15:17;13.00;62.80
19174;DHT22;9719;49.322;8.536;2023-04-06T18:20:20;12.90;62.70
19174;DHT22;9719;49.322;8.536;2023-04-06T18:25:21;12.70;64.80
19174;DHT22;9719;49.322;8.536;2023-04-06T18:30:24;12.70;65.00
19174;DHT22;9719;49.322;8.536;2023-04-06T18:35:27;12.60;65.00
19174;DHT22;9719;49.322;8.536;2023-04-06T18:40:29;12.60;66.80
19174;DHT22;9719;49.322;8.536;2023-04-06T18:45:32;12.40;69.10
19174;DHT22;9719;49.322;8.536;2023-04-06T18:50:35;12.30;70.20
19174;DHT22;9719;49.322;8.536;2023-04-06T18:55:37;12.20;73.20
19174;DHT22;9719;49.322;8.536;2023-04-06T19:00:39;12.00;74.30
19174;DHT22;9719;49.322;8.536;2023-04-06T19:05:42;11.90;80.90
19174;DHT22;9719;49.322;8.536;2023-04-06T19:10:44;11.60;88.20
19174;DHT22;9719;49.322;8.536;2023-04-06T19:15:47;11.30;91.20
19174;DHT22;9719;49.322;8.536;2023-04-06T19:20:50;11.00;96.80
19174;DHT22;9719;49.322;8.536;2023-04-06T19:25:52;10.60;99.80
19174;DHT22;9719;49.322;8.536;2023-04-06T19:30:53;10.50;99.90
19174;DHT22;9719;49.322;8.536;2023-04-06T19:35:56;10.20;99.90
19174;DHT22;9719;49.322;8.536;2023-04-06T19:40:58;10.10;99.90
19174;DHT22;9719;49.322;8.536;2023-04-06T19:46:00;10.00;99.90
19174;DHT22;9719;49.322;8.536;2023-04-06T19:51:03;9.80;99.90
19174;DHT22;9719;49.322;8.536;2023-04-06T19:56:05;9.60;99.90
19174;DHT22;9719;49.322;8.536;2023-04-06T20:01:06;9.50;99.90
19174;DHT22;9719;49.322;8.536;2023-04-06T20:06:09;9.40;99.90
19174;DHT22;9719;49.322;8.536;2023-04-06T20:11:11;9.40;99.90
19174;DHT22;9719;49.322;8.536;2023-04-06T20:16:13;9.30;99.90
19174;DHT22;9719;49.322;8.536;2023-04-06T20:21:16;9.30;99.90
19174;DHT22;9719;49.322;8.536;2023-04-06T20:26:18;9.40;99.90
19174;DHT22;9719;49.322;8.536;2023-04-06T20:31:24;9.30;99.90
19174;DHT22;9719;49.322;8.536;2023-04-06T20:36:29;9.30;99.90
19174;DHT22;9719;49.322;8.536;2023-04-06T20:41:31;9.30;99.90
19174;DHT22;9719;49.322;8.536;2023-04-06T20:46:32;9.30;99.90
19174;DHT22;9719;49.322;8.536;2023-04-06T20:51:36;9.20;99.90
19174;DHT22;9719;49.322;8.536;2023-04-06T20:56:37;9.20;99.90
19174;DHT22;9719;49.322;8.536;2023-04-06T21:01:39;9.00;99.90
19174;DHT22;9719;49.322;8.536;2023-04-06T21:06:42;8.90;99.90
19174;DHT22;9719;49.322;8.536;2023-04-06T21:11:44;8.90;99.90
19174;DHT22;9719;49.322;8.536;2023-04-06T21:16:45;8.80;99.90
19174;DHT22;9719;49.322;8.536;2023-04-06T21:21:49;8.90;99.90
19174;DHT22;9719;49.322;8.536;2023-04-06T21:26:51;8.90;99.90
19174;DHT22;9719;49.322;8.536;2023-04-06T21:31:52;8.80;99.90
19174;DHT22;9719;49.322;8.536;2023-04-06T21:36:56;8.80;99.90
19174;DHT22;9719;49.322;8.536;2023-04-06T21:41:58;8.80;99.90
19174;DHT22;9719;49.322;8.536;2023-04-06T21:46:59;8.80;99.90
19174;DHT22;9719;49.322;8.536;2023-04-06T21:52:02;8.80;99.90
19174;DHT22;9719;49.322;8.536;2023-04-06T21:57:04;8.80;99.90
19174;DHT22;9719;49.322;8.536;2023-04-06T22:02:05;8.80;99.90
19174;DHT22;9719;49.322;8.536;2023-04-06T22:07:08;8.80;99.90
19174;DHT22;9719;49.322;8.536;2023-04-06T22:12:10;8.80;99.90
19174;DHT22;9719;49.322;8.536;2023-04-06T22:17:12;8.80;99.90
19174;DHT22;9719;49.322;8.536;2023-04-06T22:22:15;8.80;99.90
19174;DHT22;9719;49.322;8.536;2023-04-06T22:27:17;8.80;99.90
19174;DHT22;9719;49.322;8.536;2023-04-06T22:32:18;8.80;99.90
19174;DHT22;9719;49.322;8.536;2023-04-06T22:37:21;8.80;99.90
19174;DHT22;9719;49.322;8.536;2023-04-06T22:42:23;8.80;99.90
19174;DHT22;9719;49.322;8.536;2023-04-06T22:47:25;8.80;99.90
19174;DHT22;9719;49.322;8.536;2023-04-06T22:52:28;8.80;99.90
19174;DHT22;9719;49.322;8.536;2023-04-06T22:57:30;8.80;99.90
19174;DHT22;9719;49.322;8.536;2023-04-06T23:02:31;8.80;99.90
19174;DHT22;9719;49.322;8.536;2023-04-06T23:07:34;8.80;99.90
19174;DHT22;9719;49.322;8.536;2023-04-06T23:12:36;8.80;99.90
19174;DHT22;9719;49.322;8.536;2023-04-06T23:17:38;8.80;99.90
19174;DHT22;9719;49.322;8.536;2023-04-06T23:22:40;8.90;99.90
19174;DHT22;9719;49.322;8.536;2023-04-06T23:27:42;8.90;99.90
19174;DHT22;9719;49.322;8.536;2023-04-06T23:32:44;8.90;99.90
19174;DHT22;9719;49.322;8.536;2023-04-06T23:37:47;8.90;99.90
19174;DHT22;9719;49.322;8.536;2023-04-06T23:42:48;9.00;99.90
19174;DHT22;9719;49.322;8.536;2023-04-06T23:47:50;9.00;99.90
19174;DHT22;9719;49.322;8.536;2023-04-06T23:52:53;9.00;99.90
19174;DHT22;9719;49.322;8.536;2023-04-06T23:57:55;9.00;99.90
